Hay Springs, NE (69347)

1:52 PM MDT on July 29, 2016 (GMT -0600)
APRSWXNET | | Change Station

Elev 3398 ft 42.83 °N, 102.99 °W | Updated 37 minutes ago

Clear
Clear
84 °F
Feels Like 83 °F
N
2
Wind Variable Wind from North
Gusts 3.0 mph

Today
High -- | Low -- °F
--% Chance of Precip.
Yesterday
High -- | Low -- °F
Precip. -- in
Pressure 30.00 in
Visibility 10.0 miles
Clouds Clear
Heat Index 83 °F
Dew Point 57 °F
Humidity 40%
Rainfall in
Snow Depth Not available.
5:39 AM 8:13 PM
Waning Crescent, 19% visible
METAR KCDR 291853Z AUTO VRB03KT 10SM CLR 29/13 A3007 RMK AO2 SLP159 T02890128
Pressure 30.00 in
Visibility 10.0 miles
Clouds Clear
Heat Index 83 °F
Dew Point 57 °F
Humidity 40%
Rainfall in
Snow Depth Not available.
5:39 AM 8:13 PM
Waning Crescent, 19% visible
METAR KCDR 291853Z AUTO VRB03KT 10SM CLR 29/13 A3007 RMK AO2 SLP159 T02890128

10-Day Weather Forecast

Almanac

Astronomy

Jul. 29, 2016 Rise Set
Actual Time
Civil Twilight
Nautical Twilight
Astronomical Twilight
Moon
Length of Visible Light
Length of Day
Tomorrow will be .
, % of the Moon is Illuminated

Today's Extremes

State Highs State Lows

Community

WunderPhotos

Upload Photos

1,928,401 photos uploaded!

WunderBlog® & News

Nearby

Air Quality

  Air Quality AQ Index Pollutant
Not available.

Snow Depth

Station Depth Elevation

Earthquake Activity

City Distance Mag. Time & Date
Minimum magnitude displayed is 2.5.

Coastal Water Temperatures

Place Temperature

Stations

Nearby Weather Stations

Station Location Temp. Windchill Dew Point Humidity Wind Precip. Elev Updated Type
                   

Watches & Warnings

There are currently no watches in effect.